createdAt,value
2017-08-03T00:00:02.354Z,15.57
2017-08-03T00:03:04.915Z,15.18
2017-08-03T00:06:07.580Z,12.95
2017-08-03T00:09:10.756Z,14.55
2017-08-03T00:12:13.469Z,13.32
2017-08-03T00:15:16.128Z,14.82
2017-08-03T00:18:19.558Z,14.25
2017-08-03T00:21:22.211Z,14.43
2017-08-03T00:24:25.734Z,15.00
2017-08-03T00:27:28.393Z,15.77
2017-08-03T00:30:30.848Z,14.52
2017-08-03T00:33:34.276Z,14.73
2017-08-03T00:36:36.940Z,13.38
2017-08-03T00:39:39.436Z,16.10
2017-08-03T00:42:42.213Z,16.23
2017-08-03T00:45:44.932Z,16.10
2017-08-03T00:48:47.602Z,14.35
2017-08-03T00:51:50.283Z,14.30
2017-08-03T00:54:52.927Z,14.05
2017-08-03T00:57:56.469Z,14.40
2017-08-03T01:00:59.144Z,14.55
2017-08-03T01:04:01.579Z,13.62
2017-08-03T01:07:05.109Z,14.20
2017-08-03T01:10:07.764Z,14.23
2017-08-03T01:13:11.296Z,13.82
2017-08-03T01:16:13.951Z,11.05
2017-08-03T01:19:16.587Z,12.95
2017-08-03T01:22:19.249Z,11.85
2017-08-03T01:25:22.363Z,14.07
2017-08-03T01:28:25.102Z,15.50
2017-08-03T01:31:27.773Z,15.68
2017-08-03T01:34:30.466Z,12.52
2017-08-03T01:37:33.126Z,14.13
2017-08-03T01:40:35.763Z,13.23
2017-08-03T01:43:38.504Z,13.93
2017-08-03T01:46:41.191Z,13.55
2017-08-03T01:49:43.665Z,15.52
2017-08-03T01:52:46.144Z,14.52
2017-08-03T01:55:48.807Z,14.48
2017-08-03T01:58:51.497Z,13.82
2017-08-03T02:01:54.187Z,16.12
2017-08-03T02:04:56.962Z,12.52
2017-08-03T02:07:59.601Z,13.62
2017-08-03T02:11:02.936Z,16.00
2017-08-03T02:14:05.591Z,15.50
2017-08-03T02:17:08.320Z,16.02
2017-08-03T02:20:10.987Z,14.25
2017-08-03T02:23:13.657Z,12.18
2017-08-03T02:26:16.329Z,12.43
2017-08-03T02:29:19.028Z,12.95
2017-08-03T02:32:21.698Z,13.25
2017-08-03T02:35:24.374Z,14.05
2017-08-03T02:38:27.043Z,13.20
2017-08-03T02:41:30.472Z,12.95
2017-08-03T02:44:33.132Z,13.70
2017-08-03T02:47:35.842Z,16.98
2017-08-03T02:50:38.466Z,15.68
2017-08-03T02:53:41.191Z,15.85
2017-08-03T02:56:43.847Z,13.38
2017-08-03T02:59:46.334Z,15.32
2017-08-03T03:02:48.701Z,18.37
2017-08-03T03:05:52.212Z,16.10
2017-08-03T03:08:54.662Z,13.90
2017-08-03T03:11:58.197Z,14.60
2017-08-03T03:15:00.828Z,13.38
2017-08-03T03:18:03.475Z,16.62
2017-08-03T03:21:06.238Z,13.80
2017-08-03T03:24:08.867Z,15.32
2017-08-03T03:27:11.618Z,14.10
2017-08-03T03:30:14.250Z,16.10
2017-08-03T03:33:17.770Z,15.02
2017-08-03T03:36:20.424Z,18.08
2017-08-03T03:39:23.853Z,13.80
2017-08-03T03:42:26.503Z,15.57
2017-08-03T03:45:29.226Z,15.05
2017-08-03T03:48:31.870Z,15.05
2017-08-03T03:51:34.583Z,17.48
2017-08-03T03:54:37.220Z,14.40
2017-08-03T03:57:39.933Z,14.00
2017-08-03T04:00:43.320Z,17.17
2017-08-03T04:03:46.852Z,15.70
2017-08-03T04:06:49.495Z,13.98
2017-08-03T04:09:52.925Z,17.00
2017-08-03T04:12:55.549Z,13.27
2017-08-03T04:15:58.602Z,14.25
2017-08-03T04:19:01.047Z,17.58
2017-08-03T04:22:03.750Z,12.57
2017-08-03T04:25:06.225Z,14.60
2017-08-03T04:28:08.904Z,15.52
2017-08-03T04:31:11.550Z,13.43
2017-08-03T04:34:14.259Z,14.93
2017-08-03T04:37:16.898Z,13.60
2017-08-03T04:40:19.616Z,12.90
2017-08-03T04:43:22.272Z,14.32
2017-08-03T04:46:25.713Z,11.55
2017-08-03T04:49:28.350Z,15.10
2017-08-03T04:52:31.801Z,12.82
2017-08-03T04:55:34.447Z,14.07
2017-08-03T04:58:36.944Z,12.48
2017-08-03T05:01:39.621Z,10.43
2017-08-03T05:04:42.267Z,12.77
2017-08-03T05:07:45.704Z,15.10
2017-08-03T05:10:48.339Z,12.77
2017-08-03T05:13:51.785Z,13.68
2017-08-03T05:16:54.420Z,11.73
2017-08-03T05:19:57.857Z,13.65
2017-08-03T05:23:00.516Z,14.27
2017-08-03T05:26:04.031Z,14.13
2017-08-03T05:29:06.664Z,13.30
2017-08-03T05:32:09.310Z,13.55
2017-08-03T05:35:11.952Z,13.02
2017-08-03T05:38:15.361Z,10.75
2017-08-03T05:41:18.056Z,10.70
2017-08-03T05:44:20.691Z,10.20
2017-08-03T05:47:23.418Z,10.75
2017-08-03T05:50:26.101Z,10.45
2017-08-03T05:53:28.762Z,9.90
2017-08-03T05:56:32.177Z,13.45
2017-08-03T05:59:35.620Z,13.62
2017-08-03T06:02:38.280Z,10.95
2017-08-03T06:05:40.907Z,9.70
2017-08-03T06:08:44.547Z,11.20
2017-08-03T06:11:47.172Z,8.90
2017-08-03T06:14:49.890Z,11.52
2017-08-03T06:17:52.572Z,12.07
2017-08-03T06:20:55.258Z,12.52
2017-08-03T06:23:57.909Z,12.05
2017-08-03T06:27:01.343Z,13.13
2017-08-03T06:30:03.971Z,11.80
2017-08-03T06:33:06.697Z,11.18
2017-08-03T06:36:09.331Z,10.43
2017-08-03T06:39:12.065Z,11.23
2017-08-03T06:42:14.739Z,11.43
2017-08-03T06:45:17.221Z,12.48
2017-08-03T06:48:19.887Z,11.95
2017-08-03T06:51:22.571Z,11.20
2017-08-03T06:54:25.269Z,13.68
2017-08-03T06:57:27.892Z,8.93
2017-08-03T07:00:30.619Z,13.85
2017-08-03T07:03:33.247Z,10.68
2017-08-03T07:06:35.989Z,11.75
2017-08-03T07:09:38.644Z,10.40
2017-08-03T07:12:41.354Z,12.88
2017-08-03T07:15:44.015Z,10.48
2017-08-03T07:18:46.714Z,12.23
2017-08-03T07:21:50.516Z,9.93
2017-08-03T07:24:53.199Z,10.52
2017-08-03T07:27:55.854Z,10.30
2017-08-03T07:30:59.272Z,12.15
2017-08-03T07:34:01.919Z,12.93
2017-08-03T07:37:04.640Z,12.23
2017-08-03T07:40:07.036Z,11.37
2017-08-03T07:43:09.475Z,12.87
2017-08-03T07:46:11.874Z,9.33
2017-08-03T07:49:14.333Z,12.33
2017-08-03T07:52:16.711Z,10.00
2017-08-03T07:55:19.182Z,8.80
2017-08-03T07:58:21.844Z,11.35
2017-08-03T08:01:24.749Z,11.50
2017-08-03T08:04:27.393Z,10.82
2017-08-03T08:07:30.055Z,11.57
2017-08-03T08:10:32.683Z,10.77
2017-08-03T08:13:35.365Z,10.02
2017-08-03T08:16:38.027Z,11.20
2017-08-03T08:19:40.722Z,13.13
2017-08-03T08:22:43.401Z,11.35
2017-08-03T08:25:46.086Z,11.30
2017-08-03T08:28:50.215Z,12.00
2017-08-03T08:31:53.787Z,12.18
2017-08-03T08:34:57.303Z,12.82
2017-08-03T08:38:00.361Z,13.00
2017-08-03T08:41:03.165Z,10.65
2017-08-03T08:44:07.304Z,10.77
2017-08-03T08:47:10.075Z,12.82
2017-08-03T08:50:12.714Z,13.48
2017-08-03T08:53:15.448Z,13.50
2017-08-03T08:56:18.106Z,11.77
2017-08-03T08:59:21.525Z,10.88
2017-08-03T09:02:24.169Z,12.98
2017-08-03T09:05:27.599Z,11.68
2017-08-03T09:08:30.248Z,12.10
2017-08-03T09:11:33.766Z,9.40
2017-08-03T09:14:37.154Z,9.85
2017-08-03T09:17:40.663Z,10.57
2017-08-03T09:20:43.315Z,11.00
2017-08-03T09:23:46.026Z,10.18
2017-08-03T09:26:48.662Z,10.93
2017-08-03T09:29:51.406Z,10.27
2017-08-03T09:32:54.057Z,12.57
2017-08-03T09:35:57.586Z,11.10
2017-08-03T09:39:00.224Z,9.73
2017-08-03T09:42:02.932Z,11.18
2017-08-03T09:45:05.550Z,9.32
2017-08-03T09:48:08.315Z,11.95
2017-08-03T09:51:10.954Z,9.00
2017-08-03T09:54:13.654Z,10.63
2017-08-03T09:57:16.566Z,11.90
2017-08-03T10:00:19.238Z,9.85
2017-08-03T10:03:21.918Z,12.93
2017-08-03T10:06:24.565Z,9.70
2017-08-03T10:09:28.094Z,11.05
2017-08-03T10:12:30.879Z,10.20
2017-08-03T10:15:33.721Z,12.68
2017-08-03T10:18:37.167Z,11.05
2017-08-03T10:21:39.845Z,11.23
2017-08-03T10:24:42.509Z,9.60
2017-08-03T10:27:46.035Z,13.50
2017-08-03T10:30:48.737Z,10.85
2017-08-03T10:33:51.890Z,11.33
2017-08-03T10:36:54.681Z,11.95
2017-08-03T10:39:57.338Z,10.68
2017-08-03T10:43:00.854Z,10.90
2017-08-03T10:46:03.534Z,11.30
2017-08-03T10:49:06.222Z,10.68
2017-08-03T10:52:09.069Z,11.67
2017-08-03T10:55:11.779Z,11.10
2017-08-03T10:58:14.418Z,11.30
2017-08-03T11:01:16.838Z,13.07
2017-08-03T11:04:19.635Z,11.65
2017-08-03T11:07:21.996Z,11.70
2017-08-03T11:10:24.475Z,12.13
2017-08-03T11:13:26.839Z,11.77
2017-08-03T11:16:29.250Z,11.20
2017-08-03T11:19:31.714Z,11.13
2017-08-03T11:22:34.182Z,12.17
2017-08-03T11:25:36.818Z,11.70
2017-08-03T11:28:39.202Z,10.67
2017-08-03T11:31:41.605Z,9.50
2017-08-03T11:34:44.084Z,9.60
2017-08-03T11:37:46.565Z,8.90
2017-08-03T11:40:49.232Z,11.25
2017-08-03T11:43:51.886Z,9.60
2017-08-03T11:46:54.598Z,10.80
2017-08-03T11:49:57.266Z,10.00
2017-08-03T11:52:59.972Z,11.35
2017-08-03T11:56:02.352Z,10.17
2017-08-03T11:59:05.034Z,10.32
2017-08-03T12:02:07.479Z,10.70
2017-08-03T12:05:10.148Z,12.48
2017-08-03T12:08:12.325Z,12.20
2017-08-03T12:11:14.646Z,11.60
2017-08-03T12:14:17.027Z,11.60
2017-08-03T12:17:19.479Z,10.13
2017-08-03T12:20:22.286Z,10.70
2017-08-03T12:23:24.842Z,11.93
2017-08-03T12:26:27.226Z,10.53
2017-08-03T12:29:29.983Z,9.95
2017-08-03T12:32:32.338Z,10.87
2017-08-03T12:35:34.829Z,11.77
2017-08-03T12:38:37.496Z,11.68
2017-08-03T12:41:40.403Z,12.23
2017-08-03T12:44:42.778Z,11.73
2017-08-03T12:47:45.249Z,12.30
2017-08-03T12:50:47.414Z,15.20
2017-08-03T12:53:49.895Z,13.60
2017-08-03T12:56:52.280Z,12.40
2017-08-03T12:59:54.726Z,13.67
2017-08-03T13:02:57.113Z,13.30
2017-08-03T13:06:00.077Z,10.20
2017-08-03T13:09:02.463Z,12.67
2017-08-03T13:12:04.751Z,12.23
2017-08-03T13:15:07.222Z,12.00
2017-08-03T13:18:09.578Z,13.57
2017-08-03T13:21:12.067Z,11.00
2017-08-03T13:24:14.553Z,10.50
2017-08-03T13:27:17.872Z,12.47
2017-08-03T13:30:21.011Z,11.40
2017-08-03T13:33:23.386Z,12.77
2017-08-03T13:36:25.775Z,13.23
2017-08-03T13:39:28.243Z,13.47
2017-08-03T13:42:30.613Z,13.60
2017-08-03T13:45:33.621Z,13.13
2017-08-03T13:48:35.803Z,11.70
2017-08-03T13:51:38.793Z,12.50
2017-08-03T13:54:41.147Z,11.30
2017-08-03T13:57:43.933Z,13.00
2017-08-03T14:00:46.402Z,12.30
2017-08-03T14:03:48.893Z,12.57
2017-08-03T14:06:51.266Z,12.60
2017-08-03T14:09:53.727Z,13.47
2017-08-03T14:12:56.090Z,11.80
2017-08-03T14:15:58.472Z,14.20
2017-08-03T14:19:00.757Z,10.87
2017-08-03T14:22:03.227Z,11.83
2017-08-03T14:25:05.580Z,12.63
2017-08-03T14:28:07.979Z,12.07
2017-08-03T14:31:10.344Z,11.60
2017-08-03T14:34:12.829Z,13.70
2017-08-03T14:37:15.202Z,12.60
2017-08-03T14:40:17.667Z,14.07
2017-08-03T14:43:20.466Z,12.23
2017-08-03T14:46:24.891Z,15.07
2017-08-03T14:49:27.263Z,14.17
2017-08-03T14:52:29.733Z,15.30
2017-08-03T14:55:32.120Z,16.60
2017-08-03T14:58:34.577Z,12.97
2017-08-03T15:01:36.942Z,14.87
2017-08-03T15:04:39.315Z,11.63
2017-08-03T15:07:41.689Z,11.40
2017-08-03T15:10:44.077Z,8.00
2017-08-03T15:13:46.453Z,10.80
2017-08-03T15:16:48.910Z,10.57
2017-08-03T15:19:51.276Z,11.00
2017-08-03T15:22:53.676Z,10.10
2017-08-03T15:25:56.030Z,8.90
2017-08-03T15:28:58.530Z,10.90
2017-08-03T15:32:00.881Z,10.50
2017-08-03T15:35:03.386Z,11.30
2017-08-03T15:38:05.739Z,9.00
2017-08-03T15:41:08.122Z,8.43
2017-08-03T15:44:10.476Z,10.20
2017-08-03T15:47:12.875Z,11.13
2017-08-03T15:50:15.245Z,10.47
2017-08-03T15:53:17.718Z,9.80
2017-08-03T15:56:20.073Z,8.87
2017-08-03T15:59:22.563Z,9.40
2017-08-03T16:02:24.906Z,9.80
2017-08-03T16:05:27.424Z,10.20
2017-08-03T16:08:29.802Z,8.70
2017-08-03T16:11:32.271Z,8.80
2017-08-03T16:14:34.634Z,11.50
2017-08-03T16:17:37.107Z,5.63
2017-08-03T16:20:39.452Z,10.23
2017-08-03T16:23:41.955Z,8.17
2017-08-03T16:26:44.320Z,8.13
2017-08-03T16:29:46.820Z,9.30
2017-08-03T16:32:49.216Z,8.70
2017-08-03T16:35:52.156Z,10.30
2017-08-03T16:38:54.517Z,7.50
2017-08-03T16:41:56.912Z,7.77
2017-08-03T16:44:59.394Z,7.93
2017-08-03T16:48:01.770Z,8.63
2017-08-03T16:51:04.364Z,9.03
2017-08-03T16:54:06.719Z,7.67
2017-08-03T16:57:09.315Z,9.17
2017-08-03T17:00:11.693Z,11.30
2017-08-03T17:03:14.050Z,7.57
2017-08-03T17:06:16.394Z,8.33
2017-08-03T17:09:18.764Z,7.17
2017-08-03T17:12:21.265Z,6.77
2017-08-03T17:15:23.642Z,12.20
2017-08-03T17:18:29.355Z,7.33
2017-08-03T17:21:32.489Z,8.53
2017-08-03T17:24:34.977Z,9.30
2017-08-03T17:27:37.335Z,8.47
2017-08-03T17:30:39.814Z,5.33
2017-08-03T17:33:42.175Z,8.40
2017-08-03T17:36:44.543Z,9.33
2017-08-03T17:39:46.934Z,7.93
2017-08-03T17:42:49.418Z,9.57
2017-08-03T17:45:51.799Z,7.80
2017-08-03T17:48:54.363Z,7.20
2017-08-03T17:51:56.721Z,7.93
2017-08-03T17:54:59.214Z,8.57
2017-08-03T17:58:01.590Z,10.20
2017-08-03T18:01:04.109Z,8.67
2017-08-03T18:04:06.471Z,7.17
2017-08-03T18:07:09.024Z,8.23
2017-08-03T18:10:11.403Z,9.50
2017-08-03T18:13:13.980Z,9.00
2017-08-03T18:16:16.156Z,9.53
2017-08-03T18:19:18.605Z,6.77
2017-08-03T18:22:20.955Z,9.17
2017-08-03T18:25:23.474Z,9.37
2017-08-03T18:28:25.864Z,9.60
2017-08-03T18:31:28.320Z,9.27
2017-08-03T18:34:30.735Z,8.60
2017-08-03T18:37:34.017Z,8.90
2017-08-03T18:40:36.395Z,8.90
2017-08-03T18:43:38.843Z,7.83
2017-08-03T18:46:41.293Z,10.20
2017-08-03T18:49:45.231Z,8.48
2017-08-03T18:52:47.583Z,10.07
2017-08-03T18:55:51.092Z,8.48
2017-08-03T18:58:53.472Z,8.97
2017-08-03T19:01:56.316Z,9.27
2017-08-03T19:04:58.738Z,9.53
2017-08-03T19:08:02.046Z,8.07
2017-08-03T19:11:04.428Z,8.73
2017-08-03T19:14:07.000Z,9.90
2017-08-03T19:17:10.340Z,8.73
2017-08-03T19:20:13.752Z,10.73
2017-08-03T19:23:17.182Z,10.13
2017-08-03T19:26:20.377Z,8.75
2017-08-03T19:29:22.763Z,13.13
2017-08-03T19:32:25.532Z,10.52
2017-08-03T19:35:28.150Z,11.57
2017-08-03T19:38:30.911Z,10.02
2017-08-03T19:41:33.599Z,11.32
2017-08-03T19:44:36.250Z,12.35
2017-08-03T19:47:39.035Z,11.57
2017-08-03T19:50:41.622Z,9.47
2017-08-03T19:53:44.491Z,11.27
2017-08-03T19:56:47.130Z,11.18
2017-08-03T19:59:49.868Z,9.68
2017-08-03T20:02:52.507Z,13.32
2017-08-03T20:05:56.069Z,12.13
2017-08-03T20:08:59.392Z,11.30
2017-08-03T20:12:01.867Z,11.25
2017-08-03T20:15:05.105Z,11.12
2017-08-03T20:18:07.919Z,11.43
2017-08-03T20:21:10.553Z,10.00
2017-08-03T20:24:13.397Z,11.38
2017-08-03T20:27:16.056Z,9.60
2017-08-03T20:30:18.672Z,9.65
2017-08-03T20:33:21.903Z,10.68
2017-08-03T20:36:24.693Z,13.05
2017-08-03T20:39:27.314Z,11.77
2017-08-03T20:42:30.048Z,11.07
2017-08-03T20:45:34.148Z,11.80
2017-08-03T20:49:46.425Z,10.93
2017-08-03T20:52:49.260Z,9.57
2017-08-03T20:55:52.994Z,13.85
2017-08-03T20:58:56.068Z,8.82
2017-08-03T21:01:59.161Z,10.93
2017-08-03T21:05:02.145Z,11.85
2017-08-03T21:08:05.707Z,15.27
2017-08-03T21:11:08.699Z,12.30
2017-08-03T21:14:11.708Z,12.73
2017-08-03T21:17:15.477Z,13.20
2017-08-03T21:20:18.512Z,13.73
2017-08-03T21:23:22.266Z,13.20
2017-08-03T21:26:25.254Z,13.77
2017-08-03T21:29:28.244Z,12.65
2017-08-03T21:32:31.280Z,11.30
2017-08-03T21:35:35.028Z,13.05
2017-08-03T21:38:37.997Z,10.40
2017-08-03T21:41:41.126Z,11.43
2017-08-03T21:44:44.171Z,10.50
2017-08-03T21:47:46.859Z,10.77
2017-08-03T21:50:49.855Z,11.05
2017-08-03T21:53:52.815Z,13.62
2017-08-03T21:56:56.662Z,11.02
2017-08-03T21:59:59.627Z,14.00
2017-08-03T22:03:02.723Z,13.05
2017-08-03T22:06:05.700Z,14.52
2017-08-03T22:09:08.816Z,12.75
2017-08-03T22:12:11.799Z,11.82
2017-08-03T22:15:14.965Z,12.95
2017-08-03T22:18:18.299Z,12.30
2017-08-03T22:21:21.459Z,13.30
2017-08-03T22:24:24.437Z,10.70
2017-08-03T22:27:28.255Z,14.32
2017-08-03T22:30:31.215Z,11.80
2017-08-03T22:33:35.046Z,13.50
2017-08-03T22:36:38.022Z,11.60
2017-08-03T22:39:41.851Z,12.98
2017-08-03T22:42:44.819Z,12.40
2017-08-03T22:45:48.733Z,12.40
2017-08-03T22:48:52.483Z,11.73
2017-08-03T22:51:55.455Z,12.70
2017-08-03T22:54:58.539Z,14.05
2017-08-03T22:58:01.514Z,11.88
2017-08-03T23:01:04.509Z,10.88
2017-08-03T23:04:07.503Z,12.32
2017-08-03T23:07:10.502Z,10.60
2017-08-03T23:10:13.478Z,10.45
2017-08-03T23:13:16.446Z,11.20
2017-08-03T23:16:19.435Z,11.52
2017-08-03T23:19:23.283Z,11.12
2017-08-03T23:28:44.135Z,10.88
2017-08-03T23:31:47.682Z,10.75
2017-08-03T23:34:51.414Z,11.00
2017-08-03T23:37:54.416Z,11.63
2017-08-03T23:41:13.996Z,10.13
2017-08-03T23:44:17.064Z,9.82
2017-08-03T23:47:20.038Z,11.95
2017-08-03T23:50:23.011Z,9.77
2017-08-03T23:53:26.747Z,9.52
2017-08-03T23:56:29.729Z,12.50
2017-08-03T23:59:33.209Z,14.77
